Time,TemperatureF,DewpointF,PressureIn,WindDirection,WindDirectionDegrees,WindSpeedMPH,WindSpeedGustMPH,Humidity,HourlyPrecipIn,Conditions,Clouds,dailyrainin,SoftwareType,DateUTC
2013-04-14 00:03:00,45.0,-99.9,-100.00,ENE,70,7.0,8.0,-999,0.00,,,0.00,,2013-04-14 05:03:00,
2013-04-14 00:12:00,45.0,-99.9,-100.00,ENE,70,7.0,8.0,-999,0.00,,,0.00,,2013-04-14 05:12:00,
2013-04-14 00:23:00,45.0,-99.9,-100.00,ENE,70,7.0,8.0,-999,0.00,,,0.00,,2013-04-14 05:23:00,
2013-04-14 00:32:00,45.0,-99.9,-100.00,ENE,64,8.0,10.0,-999,0.00,,,0.00,,2013-04-14 05:32:00,
2013-04-14 00:43:00,45.0,-99.9,-100.00,ENE,64,8.0,10.0,-999,0.00,,,0.00,,2013-04-14 05:43:00,
2013-04-14 00:53:00,45.0,-99.9,-100.00,ENE,64,8.0,10.0,-999,0.00,,,0.00,,2013-04-14 05:53:00,
2013-04-14 01:02:00,44.0,-99.9,-100.00,NE,56,9.0,12.0,-999,0.00,,,0.00,,2013-04-14 06:02:00,
2013-04-14 01:12:00,44.0,-99.9,-100.00,NE,56,9.0,12.0,-999,0.00,,,0.00,,2013-04-14 06:12:00,
2013-04-14 01:22:00,44.0,-99.9,-100.00,NE,56,9.0,12.0,-999,0.00,,,0.00,,2013-04-14 06:22:00,
2013-04-14 01:32:00,44.0,-99.9,-100.00,ENE,70,10.0,11.0,-999,0.00,,,0.00,,2013-04-14 06:32:00,
2013-04-14 01:42:00,44.0,-99.9,-100.00,ENE,70,10.0,11.0,-999,0.00,,,0.00,,2013-04-14 06:42:00,
2013-04-14 01:53:00,44.0,-99.9,-100.00,ENE,70,10.0,11.0,-999,0.00,,,0.00,,2013-04-14 06:53:00,
2013-04-14 02:03:00,44.0,-99.9,-100.00,East,90,10.0,13.0,-999,0.00,,,0.00,,2013-04-14 07:03:00,
2013-04-14 02:12:00,44.0,-99.9,-100.00,East,90,10.0,13.0,-999,0.00,,,0.00,,2013-04-14 07:12:00,
2013-04-14 02:23:00,44.0,-99.9,-100.00,East,90,10.0,13.0,-999,0.00,,,0.00,,2013-04-14 07:23:00,
2013-04-14 02:33:00,43.0,-99.9,-100.00,East,86,11.0,13.0,-999,0.00,,,0.00,,2013-04-14 07:33:00,
2013-04-14 02:42:00,43.0,-99.9,-100.00,East,86,11.0,13.0,-999,0.00,,,0.00,,2013-04-14 07:42:00,
2013-04-14 02:53:00,43.0,-99.9,-100.00,East,86,11.0,13.0,-999,0.00,,,0.00,,2013-04-14 07:53:00,
2013-04-14 03:03:00,43.0,-99.9,-100.00,ENE,66,10.0,12.0,-999,0.00,,,0.00,,2013-04-14 08:03:00,
2013-04-14 03:13:00,43.0,-99.9,-100.00,ENE,66,10.0,12.0,-999,0.00,,,0.00,,2013-04-14 08:13:00,
2013-04-14 03:23:00,43.0,-99.9,-100.00,ENE,66,10.0,12.0,-999,0.00,,,0.00,,2013-04-14 08:23:00,
2013-04-14 03:33:00,43.0,-99.9,-100.00,ENE,69,14.0,16.0,-999,0.00,,,0.00,,2013-04-14 08:33:00,
2013-04-14 03:43:00,43.0,-99.9,-100.00,ENE,69,14.0,16.0,-999,0.00,,,0.00,,2013-04-14 08:43:00,
2013-04-14 03:53:00,43.0,-99.9,-100.00,ENE,69,14.0,16.0,-999,0.00,,,0.00,,2013-04-14 08:53:00,
2013-04-14 04:03:00,43.0,-99.9,-100.00,ENE,75,14.0,16.0,-999,0.00,,,0.00,,2013-04-14 09:03:00,
2013-04-14 04:12:00,43.0,-99.9,-100.00,ENE,75,14.0,16.0,-999,0.00,,,0.00,,2013-04-14 09:12:00,
2013-04-14 04:23:00,43.0,-99.9,-100.00,ENE,75,14.0,16.0,-999,0.00,,,0.00,,2013-04-14 09:23:00,
2013-04-14 04:33:00,43.0,-99.9,-100.00,ENE,75,15.0,18.0,-999,0.00,,,0.00,,2013-04-14 09:33:00,
2013-04-14 04:43:00,43.0,-99.9,-100.00,ENE,75,15.0,18.0,-999,0.00,,,0.00,,2013-04-14 09:43:00,
2013-04-14 04:54:00,43.0,-99.9,-100.00,ENE,75,15.0,18.0,-999,0.00,,,0.00,,2013-04-14 09:54:00,
2013-04-14 05:03:00,43.0,-99.9,-100.00,East,85,14.0,19.0,-999,0.00,,,0.00,,2013-04-14 10:03:00,
2013-04-14 05:13:00,43.0,-99.9,-100.00,East,85,14.0,19.0,-999,0.00,,,0.00,,2013-04-14 10:13:00,
2013-04-14 05:23:00,43.0,-99.9,-100.00,East,85,14.0,19.0,-999,0.00,,,0.00,,2013-04-14 10:23:00,
2013-04-14 05:33:00,42.0,-99.9,-100.00,ENE,78,15.0,18.0,-999,0.00,,,0.00,,2013-04-14 10:33:00,
2013-04-14 05:43:00,42.0,-99.9,-100.00,ENE,78,15.0,18.0,-999,0.00,,,0.00,,2013-04-14 10:43:00,
2013-04-14 05:53:00,42.0,-99.9,-100.00,ENE,78,15.0,18.0,-999,0.00,,,0.00,,2013-04-14 10:53:00,
2013-04-14 06:03:00,42.0,-99.9,-100.00,ENE,73,15.0,17.0,-999,0.01,,,0.01,,2013-04-14 11:03:00,
2013-04-14 06:13:00,42.0,-99.9,-100.00,ENE,73,15.0,17.0,-999,0.01,,,0.01,,2013-04-14 11:13:00,
2013-04-14 06:23:00,42.0,-99.9,-100.00,ENE,73,15.0,17.0,-999,0.01,,,0.01,,2013-04-14 11:23:00,
2013-04-14 06:33:00,42.0,-99.9,-100.00,East,80,16.0,18.0,-999,0.01,,,0.01,,2013-04-14 11:33:00,
2013-04-14 06:42:00,42.0,-99.9,-100.00,East,80,16.0,18.0,-999,0.01,,,0.01,,2013-04-14 11:42:00,
2013-04-14 06:53:00,42.0,-99.9,-100.00,East,80,16.0,18.0,-999,0.01,,,0.01,,2013-04-14 11:53:00,
2013-04-14 07:02:00,42.0,-99.9,-100.00,East,83,17.0,22.0,-999,0.00,,,0.01,,2013-04-14 12:02:00,
2013-04-14 07:12:00,42.0,-99.9,-100.00,East,83,17.0,22.0,-999,0.00,,,0.01,,2013-04-14 12:12:00,
2013-04-14 07:22:00,42.0,-99.9,-100.00,East,83,17.0,22.0,-999,0.00,,,0.01,,2013-04-14 12:22:00,
2013-04-14 07:32:00,42.0,-99.9,-100.00,East,86,16.0,21.0,-999,0.00,,,0.01,,2013-04-14 12:32:00,
2013-04-14 07:42:00,42.0,-99.9,-100.00,East,86,16.0,21.0,-999,0.00,,,0.01,,2013-04-14 12:42:00,
2013-04-14 07:52:00,42.0,-99.9,-100.00,East,86,16.0,21.0,-999,0.00,,,0.01,,2013-04-14 12:52:00,
2013-04-14 08:02:00,42.0,-99.9,-100.00,East,80,17.0,20.0,-999,0.00,,,0.01,,2013-04-14 13:02:00,
2013-04-14 08:12:00,42.0,-99.9,-100.00,East,80,17.0,20.0,-999,0.00,,,0.01,,2013-04-14 13:12:00,
2013-04-14 08:23:00,42.0,-99.9,-100.00,East,80,17.0,20.0,-999,0.00,,,0.01,,2013-04-14 13:23:00,
2013-04-14 08:33:00,43.0,-99.9,-100.00,East,84,18.0,21.0,-999,0.00,,,0.01,,2013-04-14 13:33:00,
2013-04-14 08:43:00,43.0,-99.9,-100.00,East,84,18.0,21.0,-999,0.00,,,0.01,,2013-04-14 13:43:00,
2013-04-14 08:53:00,43.0,-99.9,-100.00,East,84,18.0,21.0,-999,0.00,,,0.01,,2013-04-14 13:53:00,
2013-04-14 09:03:00,43.0,-99.9,-100.00,East,84,18.0,22.0,-999,0.00,,,0.01,,2013-04-14 14:03:00,
2013-04-14 09:12:00,43.0,-99.9,-100.00,East,84,18.0,22.0,-999,0.00,,,0.01,,2013-04-14 14:12:00,
2013-04-14 09:23:00,43.0,-99.9,-100.00,East,84,18.0,22.0,-999,0.00,,,0.01,,2013-04-14 14:23:00,
2013-04-14 09:33:00,44.0,-99.9,-100.00,East,91,17.0,21.0,-999,0.00,,,0.01,,2013-04-14 14:33:00,
2013-04-14 09:42:00,44.0,-99.9,-100.00,East,91,17.0,21.0,-999,0.00,,,0.01,,2013-04-14 14:42:00,
2013-04-14 09:53:00,44.0,-99.9,-100.00,East,91,17.0,21.0,-999,0.00,,,0.01,,2013-04-14 14:53:00,
2013-04-14 10:03:00,44.0,-99.9,-100.00,East,85,14.0,17.0,-999,0.00,,,0.01,,2013-04-14 15:03:00,
2013-04-14 10:13:00,44.0,-99.9,-100.00,East,85,14.0,17.0,-999,0.00,,,0.01,,2013-04-14 15:13:00,
2013-04-14 10:23:00,44.0,-99.9,-100.00,East,85,14.0,17.0,-999,0.00,,,0.01,,2013-04-14 15:23:00,
2013-04-14 10:34:00,46.0,-99.9,-100.00,East,90,15.0,17.0,-999,0.00,,,0.01,,2013-04-14 15:34:00,
2013-04-14 10:44:00,46.0,-99.9,-100.00,East,90,15.0,17.0,-999,0.00,,,0.01,,2013-04-14 15:44:00,
2013-04-14 10:53:00,46.0,-99.9,-100.00,East,90,15.0,17.0,-999,0.00,,,0.01,,2013-04-14 15:53:00,
2013-04-14 11:05:00,49.0,-99.9,-100.00,East,94,14.0,18.0,-999,0.00,,,0.01,,2013-04-14 16:05:00,
2013-04-14 11:13:00,49.0,-99.9,-100.00,East,94,14.0,18.0,-999,0.00,,,0.01,,2013-04-14 16:13:00,
2013-04-14 11:23:00,49.0,-99.9,-100.00,East,94,14.0,18.0,-999,0.00,,,0.01,,2013-04-14 16:23:00,
2013-04-14 11:33:00,50.0,-99.9,-100.00,East,97,14.0,17.0,-999,0.00,,,0.01,,2013-04-14 16:33:00,
2013-04-14 11:44:00,50.0,-99.9,-100.00,East,97,14.0,17.0,-999,0.00,,,0.01,,2013-04-14 16:44:00,
2013-04-14 11:53:00,50.0,-99.9,-100.00,East,97,14.0,17.0,-999,0.00,,,0.01,,2013-04-14 16:53:00,
2013-04-14 12:02:00,53.0,-99.9,-100.00,ESE,113,14.0,19.0,-999,0.00,,,0.01,,2013-04-14 17:02:00,
2013-04-14 12:13:00,53.0,-99.9,-100.00,ESE,113,14.0,19.0,-999,0.00,,,0.01,,2013-04-14 17:13:00,
2013-04-14 12:23:00,53.0,-99.9,-100.00,ESE,113,14.0,19.0,-999,0.00,,,0.01,,2013-04-14 17:23:00,
2013-04-14 12:33:00,57.0,-99.9,-100.00,ESE,113,14.0,21.0,-999,0.00,,,0.01,,2013-04-14 17:33:00,
2013-04-14 12:43:00,57.0,-99.9,-100.00,ESE,113,14.0,21.0,-999,0.00,,,0.01,,2013-04-14 17:43:00,
2013-04-14 12:53:00,57.0,-99.9,-100.00,ESE,113,14.0,21.0,-999,0.00,,,0.01,,2013-04-14 17:53:00,
2013-04-14 13:03:00,59.0,-99.9,-100.00,ESE,113,12.0,20.0,-999,0.00,,,0.01,,2013-04-14 18:03:00,
2013-04-14 13:13:00,59.0,-99.9,-100.00,ESE,113,12.0,20.0,-999,0.00,,,0.01,,2013-04-14 18:13:00,
2013-04-14 13:22:00,59.0,-99.9,-100.00,ESE,113,12.0,20.0,-999,0.00,,,0.01,,2013-04-14 18:22:00,
2013-04-14 13:33:00,64.0,-99.9,-100.00,SE,128,14.0,19.0,-999,0.00,,,0.01,,2013-04-14 18:33:00,
2013-04-14 13:43:00,64.0,-99.9,-100.00,SE,128,14.0,19.0,-999,0.00,,,0.01,,2013-04-14 18:43:00,
2013-04-14 13:54:00,64.0,-99.9,-100.00,SE,128,14.0,19.0,-999,0.00,,,0.01,,2013-04-14 18:54:00,
2013-04-14 14:04:00,66.0,-99.9,-100.00,SE,131,15.0,19.0,-999,0.00,,,0.01,,2013-04-14 19:04:00,
2013-04-14 14:12:00,66.0,-99.9,-100.00,SE,131,15.0,19.0,-999,0.00,,,0.01,,2013-04-14 19:12:00,
2013-04-14 14:23:00,66.0,-99.9,-100.00,SE,131,15.0,19.0,-999,0.00,,,0.01,,2013-04-14 19:23:00,
2013-04-14 14:33:00,68.0,-99.9,-100.00,SE,135,16.0,23.0,-999,0.00,,,0.01,,2013-04-14 19:33:00,
2013-04-14 14:43:00,68.0,-99.9,-100.00,SE,135,16.0,23.0,-999,0.00,,,0.01,,2013-04-14 19:43:00,
2013-04-14 14:53:00,68.0,-99.9,-100.00,SE,135,16.0,23.0,-999,0.00,,,0.01,,2013-04-14 19:53:00,
2013-04-14 15:03:00,69.0,-99.9,-100.00,SE,137,12.0,23.0,-999,0.00,,,0.01,,2013-04-14 20:03:00,
2013-04-14 15:13:00,69.0,-99.9,-100.00,SE,137,12.0,23.0,-999,0.00,,,0.01,,2013-04-14 20:13:00,
2013-04-14 15:22:00,69.0,-99.9,-100.00,SE,137,12.0,23.0,-999,0.00,,,0.01,,2013-04-14 20:22:00,
2013-04-14 15:33:00,72.0,-99.9,-100.00,SSE,162,10.0,14.0,-999,0.00,,,0.01,,2013-04-14 20:33:00,
2013-04-14 15:43:00,72.0,-99.9,-100.00,SSE,162,10.0,14.0,-999,0.00,,,0.01,,2013-04-14 20:43:00,
2013-04-14 15:53:00,72.0,-99.9,-100.00,SSE,162,10.0,14.0,-999,0.00,,,0.01,,2013-04-14 20:53:00,
2013-04-14 16:02:00,73.0,-99.9,-100.00,SSE,160,10.0,20.0,-999,0.00,,,0.01,,2013-04-14 21:02:00,
2013-04-14 16:13:00,73.0,-99.9,-100.00,SSE,160,10.0,20.0,-999,0.00,,,0.01,,2013-04-14 21:13:00,
2013-04-14 16:23:00,73.0,-99.9,-100.00,SSE,160,10.0,20.0,-999,0.00,,,0.01,,2013-04-14 21:23:00,
2013-04-14 16:34:00,73.0,-99.9,-100.00,SSE,161,16.0,21.0,-999,0.00,,,0.01,,2013-04-14 21:34:00,
2013-04-14 16:43:00,73.0,-99.9,-100.00,SSE,161,16.0,21.0,-999,0.00,,,0.01,,2013-04-14 21:43:00,
2013-04-14 16:54:00,73.0,-99.9,-100.00,SSE,161,16.0,21.0,-999,0.00,,,0.01,,2013-04-14 21:54:00,
2013-04-14 17:03:00,71.0,-99.9,-100.00,SSE,147,17.0,24.0,-999,0.00,,,0.01,,2013-04-14 22:03:00,
2013-04-14 17:13:00,71.0,-99.9,-100.00,SSE,147,17.0,24.0,-999,0.00,,,0.01,,2013-04-14 22:13:00,
2013-04-14 17:23:00,71.0,-99.9,-100.00,SSE,147,17.0,24.0,-999,0.00,,,0.01,,2013-04-14 22:23:00,
2013-04-14 17:33:00,73.0,-99.9,-100.00,SSE,154,15.0,26.0,-999,0.00,,,0.01,,2013-04-14 22:33:00,
2013-04-14 17:44:00,73.0,-99.9,-100.00,SSE,154,15.0,26.0,-999,0.00,,,0.01,,2013-04-14 22:44:00,
2013-04-14 17:53:00,73.0,-99.9,-100.00,SSE,154,15.0,26.0,-999,0.00,,,0.01,,2013-04-14 22:53:00,
2013-04-14 18:02:00,72.0,-99.9,-100.00,SSE,150,13.0,18.0,-999,0.00,,,0.01,,2013-04-14 23:02:00,
2013-04-14 18:13:00,72.0,-99.9,-100.00,SSE,150,13.0,18.0,-999,0.00,,,0.01,,2013-04-14 23:13:00,
2013-04-14 18:23:00,72.0,-99.9,-100.00,SSE,150,13.0,18.0,-999,0.00,,,0.01,,2013-04-14 23:23:00,
2013-04-14 18:33:00,71.0,-99.9,-100.00,SSE,155,11.0,16.0,-999,0.00,,,0.01,,2013-04-14 23:33:00,
2013-04-14 18:43:00,71.0,-99.9,-100.00,SSE,155,11.0,16.0,-999,0.00,,,0.01,,2013-04-14 23:43:00,
2013-04-14 18:53:00,71.0,-99.9,-100.00,SSE,155,11.0,16.0,-999,0.00,,,0.01,,2013-04-14 23:53:00,
2013-04-14 19:02:00,70.0,-99.9,-100.00,SSE,150,9.0,16.0,-999,0.00,,,0.01,,2013-04-15 00:02:00,
2013-04-14 19:13:00,70.0,-99.9,-100.00,SSE,150,9.0,16.0,-999,0.00,,,0.01,,2013-04-15 00:13:00,
2013-04-14 19:23:00,70.0,-99.9,-100.00,SSE,150,9.0,16.0,-999,0.00,,,0.01,,2013-04-15 00:23:00,
2013-04-14 19:34:00,70.0,-99.9,-100.00,SSE,149,10.0,14.0,-999,0.00,,,0.01,,2013-04-15 00:34:00,
2013-04-14 19:43:00,70.0,-99.9,-100.00,SSE,149,10.0,14.0,-999,0.00,,,0.01,,2013-04-15 00:43:00,
2013-04-14 19:53:00,70.0,-99.9,-100.00,SSE,149,10.0,14.0,-999,0.00,,,0.01,,2013-04-15 00:53:00,
2013-04-14 20:00:00,69.0,-99.9,-100.00,SSE,157,13.0,17.0,-999,0.00,,,0.01,,2013-04-15 01:00:00,
2013-04-14 20:03:00,69.0,-99.9,-100.00,SSE,152,12.0,18.0,-999,0.00,,,0.01,,2013-04-15 01:03:00,
2013-04-14 20:13:00,69.0,-99.9,-100.00,SSE,152,12.0,18.0,-999,0.00,,,0.01,,2013-04-15 01:13:00,
2013-04-14 20:23:00,69.0,-99.9,-100.00,SSE,152,12.0,18.0,-999,0.00,,,0.01,,2013-04-15 01:23:00,
2013-04-14 20:33:00,69.0,-99.9,-100.00,SSE,157,13.0,17.0,-999,0.00,,,0.01,,2013-04-15 01:33:00,
2013-04-14 20:43:00,69.0,-99.9,-100.00,SSE,157,13.0,17.0,-999,0.00,,,0.01,,2013-04-15 01:43:00,
2013-04-14 20:53:00,69.0,-99.9,-100.00,SSE,157,13.0,17.0,-999,0.00,,,0.01,,2013-04-15 01:53:00,
2013-04-14 21:00:00,-999.0,-99.9,-100.00,SSE,162,9.0,12.0,-999,0.00,,,0.01,,2013-04-15 02:00:00,
2013-04-14 21:33:00,-999.0,-99.9,-100.00,SSE,162,9.0,12.0,-999,0.00,,,0.01,,2013-04-15 02:33:00,
2013-04-14 21:42:00,-999.0,-99.9,-100.00,SSE,162,9.0,12.0,-999,0.00,,,0.01,,2013-04-15 02:42:00,
2013-04-14 21:53:00,-999.0,-99.9,-100.00,SSE,162,9.0,12.0,-999,0.00,,,0.01,,2013-04-15 02:53:00,
2013-04-14 22:33:00,66.0,-99.9,-100.00,SSE,160,14.0,19.0,-999,0.00,,,0.01,,2013-04-15 03:33:00,
2013-04-14 22:43:00,66.0,-99.9,-100.00,SSE,160,14.0,19.0,-999,0.00,,,0.01,,2013-04-15 03:43:00,
2013-04-14 22:55:00,66.0,-99.9,-100.00,SSE,160,14.0,19.0,-999,0.00,,,0.01,,2013-04-15 03:55:00,
2013-04-14 23:03:00,67.0,-99.9,-100.00,SSE,168,17.0,31.0,-999,0.00,,,0.01,,2013-04-15 04:03:00,
2013-04-14 23:13:00,67.0,-99.9,-100.00,SSE,168,17.0,31.0,-999,0.00,,,0.01,,2013-04-15 04:13:00,
2013-04-14 23:23:00,67.0,-99.9,-100.00,SSE,168,17.0,31.0,-999,0.00,,,0.01,,2013-04-15 04:23:00,
2013-04-14 23:33:00,67.0,-99.9,-100.00,South,172,15.0,19.0,-999,0.00,,,0.01,,2013-04-15 04:33:00,
2013-04-14 23:43:00,67.0,-99.9,-100.00,South,172,15.0,19.0,-999,0.00,,,0.01,,2013-04-15 04:43:00,
2013-04-14 23:53:00,67.0,-99.9,-100.00,South,172,15.0,19.0,-999,0.00,,,0.01,,2013-04-15 04:53:00,